createdAt,value
2023-01-09T00:07:19.043Z,2.93
2023-01-09T00:19:25.698Z,2.81
2023-01-09T00:25:16.444Z,2.74
2023-01-09T00:31:29.776Z,2.85
2023-01-09T00:40:50.187Z,2.78
2023-01-09T00:46:30.840Z,2.72
2023-01-09T00:58:41.891Z,2.78
2023-01-09T01:01:47.140Z,2.75
2023-01-09T01:07:54.765Z,2.83
2023-01-09T01:17:36.521Z,2.93
2023-01-09T01:29:40.403Z,3.00
2023-01-09T01:32:47.513Z,2.95
2023-01-09T01:38:45.932Z,3.21
2023-01-09T01:54:55.469Z,2.94
2023-01-09T02:01:15.043Z,3.01
2023-01-09T02:04:04.300Z,2.95
2023-01-09T02:13:13.017Z,3.11
2023-01-09T02:16:52.360Z,3.02
2023-01-09T02:29:23.322Z,3.18
2023-01-09T02:50:49.215Z,2.80
2023-01-09T02:53:57.510Z,2.87
2023-01-09T02:58:18.728Z,3.06
2023-01-09T03:00:17.950Z,3.05
2023-01-09T03:06:53.850Z,2.99
2023-01-09T03:21:21.656Z,3.02
2023-01-09T03:36:37.767Z,3.51
2023-01-09T03:39:49.735Z,3.32
2023-01-09T03:42:50.251Z,3.39
2023-01-09T03:51:54.802Z,3.44
2023-01-09T03:55:06.867Z,3.48
2023-01-09T03:58:15.404Z,3.51
2023-01-09T04:01:54.418Z,3.73
2023-01-09T04:05:06.396Z,3.66
2023-01-09T04:11:29.573Z,3.89
2023-01-09T04:14:45.241Z,3.92
2023-01-09T04:20:51.689Z,3.81
2023-01-09T04:26:49.087Z,3.86
2023-01-09T04:32:45.854Z,4.10
2023-01-09T04:41:46.323Z,4.08
2023-01-09T04:47:54.769Z,4.15
2023-01-09T04:53:51.276Z,4.13
2023-01-09T05:03:07.874Z,4.52
2023-01-09T05:09:17.941Z,4.28
2023-01-09T05:48:17.208Z,4.41
2023-01-09T06:54:48.184Z,4.15
2023-01-09T07:24:05.199Z,4.58
2023-01-09T07:37:37.188Z,4.76
2023-01-09T08:14:52.348Z,4.80
2023-01-09T08:21:35.156Z,4.91
2023-01-09T08:39:19.772Z,4.98
2023-01-09T08:46:35.094Z,5.20
2023-01-09T08:56:17.051Z,5.25
2023-01-09T09:18:36.193Z,5.31
2023-01-09T10:03:47.894Z,5.71
2023-01-09T10:17:41.799Z,5.95
2023-01-09T10:45:32.532Z,6.32
2023-01-09T12:23:04.873Z,6.94
2023-01-09T12:29:53.452Z,7.09
2023-01-09T12:40:28.234Z,7.04
2023-01-09T12:57:09.664Z,6.90
2023-01-09T13:07:40.783Z,6.93
2023-01-09T13:10:57.587Z,7.20
2023-01-09T13:14:23.355Z,7.10
2023-01-09T13:17:25.495Z,7.49
2023-01-09T13:23:46.564Z,7.22
2023-01-09T13:33:56.111Z,7.38
2023-01-09T13:40:05.558Z,7.37
2023-01-09T13:46:17.118Z,7.34
2023-01-09T13:49:31.935Z,7.36
2023-01-09T13:52:28.587Z,7.24
2023-01-09T14:01:50.139Z,7.29
2023-01-09T14:04:42.946Z,7.16
2023-01-09T14:29:04.533Z,6.61
2023-01-09T14:38:45.625Z,6.57
2023-01-09T14:42:21.668Z,6.51
2023-01-09T14:45:25.609Z,6.29
2023-01-09T14:51:23.439Z,6.24
2023-01-09T14:57:13.339Z,6.27
2023-01-09T15:03:13.549Z,6.07
2023-01-09T15:09:42.809Z,6.00
2023-01-09T15:19:16.349Z,6.11
2023-01-09T15:28:46.101Z,5.92
2023-01-09T15:41:20.768Z,5.63
2023-01-09T15:44:54.295Z,5.52
2023-01-09T15:50:49.936Z,5.39
2023-01-09T16:06:38.107Z,5.44
2023-01-09T16:10:42.926Z,5.30
2023-01-09T16:16:13.085Z,5.22
2023-01-09T16:36:11.370Z,5.40
2023-01-09T16:38:37.974Z,5.31
2023-01-09T16:41:33.539Z,5.24
2023-01-09T16:44:00.386Z,5.11
2023-01-09T16:46:28.423Z,5.00
2023-01-09T16:49:02.246Z,5.05
2023-01-09T16:51:34.260Z,4.79
2023-01-09T16:54:00.874Z,4.62
2023-01-09T16:56:30.175Z,4.47
2023-01-09T16:58:59.903Z,4.33
2023-01-09T17:01:26.707Z,4.22
2023-01-09T17:03:53.377Z,4.15
2023-01-09T17:06:30.359Z,4.21
2023-01-09T17:08:57.676Z,4.32
2023-01-09T17:11:36.934Z,4.57
2023-01-09T17:14:04.180Z,4.65
2023-01-09T17:16:30.902Z,4.72
2023-01-09T17:18:57.875Z,4.93
2023-01-09T17:21:29.695Z,5.03
2023-01-09T17:24:15.910Z,4.92
2023-01-09T17:27:04.686Z,4.78
2023-01-09T17:29:32.523Z,4.68
2023-01-09T17:31:59.224Z,4.59
2023-01-09T17:34:26.005Z,4.43
2023-01-09T17:36:55.670Z,4.34
2023-01-09T17:39:23.742Z,4.17
2023-01-09T17:41:50.417Z,4.07
2023-01-09T17:44:17.045Z,4.03
2023-01-09T17:46:45.032Z,4.07
2023-01-09T17:49:20.056Z,4.06
2023-01-09T17:51:46.865Z,3.99
2023-01-09T17:54:14.810Z,3.93
2023-01-09T17:56:49.227Z,3.90
2023-01-09T17:59:16.792Z,3.86
2023-01-09T18:01:47.714Z,3.86
2023-01-09T18:04:14.438Z,3.80
2023-01-09T18:06:41.269Z,3.87
2023-01-09T18:09:08.310Z,3.79
2023-01-09T18:11:35.017Z,3.66
2023-01-09T18:14:12.817Z,3.66
2023-01-09T18:16:40.237Z,3.67
2023-01-09T18:19:07.032Z,3.65
2023-01-09T18:21:33.702Z,3.61
2023-01-09T18:24:05.134Z,3.62
2023-01-09T18:26:31.748Z,3.62
2023-01-09T18:29:00.954Z,3.70
2023-01-09T18:31:30.683Z,3.77
2023-01-09T18:34:02.108Z,3.87
2023-01-09T18:36:31.704Z,3.89
2023-01-09T18:39:00.695Z,4.07
2023-01-09T18:41:27.969Z,4.30
2023-01-09T18:43:57.720Z,4.37
2023-01-09T18:46:25.424Z,4.51
2023-01-09T18:48:55.347Z,4.56
2023-01-09T18:51:28.813Z,4.65
2023-01-09T18:53:56.000Z,4.63
2023-01-09T18:56:24.832Z,4.63
2023-01-09T18:58:58.694Z,4.61
2023-01-09T19:01:26.884Z,4.52
2023-01-09T19:03:53.904Z,4.43
2023-01-09T19:06:20.567Z,4.40
2023-01-09T19:08:47.321Z,4.35
2023-01-09T19:11:15.746Z,4.34
2023-01-09T19:13:42.510Z,4.24
2023-01-09T19:16:12.641Z,4.15
2023-01-09T19:18:41.814Z,4.07
2023-01-09T19:21:22.411Z,3.97
2023-01-09T19:23:55.098Z,3.86
2023-01-09T19:26:26.820Z,3.85
2023-01-09T19:28:58.131Z,3.73
2023-01-09T19:31:29.104Z,3.68
2023-01-09T19:33:56.743Z,3.50
2023-01-09T19:36:23.656Z,3.46
2023-01-09T19:38:55.716Z,3.36
2023-01-09T19:41:25.676Z,3.35
2023-01-09T19:43:52.557Z,3.30
2023-01-09T19:46:24.409Z,3.27
2023-01-09T19:48:54.429Z,3.21
2023-01-09T19:51:22.042Z,3.18
2023-01-09T19:53:53.709Z,3.14
2023-01-09T19:56:22.741Z,3.14
2023-01-09T19:58:51.617Z,3.16
2023-01-09T20:01:24.811Z,3.19
2023-01-09T20:03:53.059Z,3.15
2023-01-09T20:06:24.890Z,3.11
2023-01-09T20:08:54.984Z,3.08
2023-01-09T20:11:26.148Z,3.03
2023-01-09T20:13:53.068Z,2.97
2023-01-09T20:16:22.248Z,2.94
2023-01-09T20:18:49.469Z,2.92
2023-01-09T20:23:50.917Z,3.01
2023-01-09T20:26:17.911Z,2.99
2023-01-09T20:28:46.093Z,2.98
2023-01-09T20:31:16.306Z,3.11
2023-01-09T20:33:44.056Z,3.06
2023-01-09T20:36:11.020Z,3.08
2023-01-09T20:38:39.744Z,3.16
2023-01-09T20:41:23.869Z,3.36
2023-01-09T20:43:53.994Z,3.54
2023-01-09T20:46:23.379Z,3.68
2023-01-09T20:48:50.128Z,3.91
2023-01-09T20:51:20.238Z,4.07
2023-01-09T20:53:51.286Z,4.15
2023-01-09T20:56:17.913Z,4.30
2023-01-09T20:58:44.517Z,4.46
2023-01-09T21:01:14.816Z,4.50
2023-01-09T21:03:42.195Z,4.73
2023-01-09T21:06:13.326Z,4.88
2023-01-09T21:08:45.031Z,5.02
2023-01-09T21:11:12.128Z,5.13
2023-01-09T21:13:39.312Z,5.17
2023-01-09T21:16:09.886Z,5.25
2023-01-09T21:18:46.199Z,5.22
2023-01-09T21:21:15.845Z,5.13
2023-01-09T21:23:54.515Z,5.05
2023-01-09T21:26:27.726Z,4.93
2023-01-09T21:28:56.235Z,4.88
2023-01-09T21:31:33.640Z,4.77
2023-01-09T21:34:06.319Z,4.68
2023-01-09T21:36:35.615Z,4.70
2023-01-09T21:39:02.469Z,4.71
2023-01-09T21:41:47.834Z,4.72
2023-01-09T21:44:35.995Z,4.76
2023-01-09T21:47:03.084Z,4.80
2023-01-09T21:49:33.666Z,4.91
2023-01-09T21:52:00.397Z,5.00
2023-01-09T21:54:36.224Z,5.00
2023-01-09T21:57:03.020Z,5.01
2023-01-09T21:59:31.459Z,4.99
2023-01-09T22:02:07.503Z,4.95
2023-01-09T22:04:34.157Z,4.96
2023-01-09T22:07:03.401Z,4.91
2023-01-09T22:09:30.054Z,4.82
2023-01-09T22:11:57.885Z,4.77
2023-01-09T22:14:24.590Z,4.76
2023-01-09T22:16:51.205Z,4.70
2023-01-09T22:19:18.178Z,4.66
2023-01-09T22:21:45.197Z,4.65
2023-01-09T22:24:16.682Z,4.65
2023-01-09T22:26:46.581Z,4.66
2023-01-09T22:29:22.105Z,4.65
2023-01-09T22:31:48.725Z,4.67
2023-01-09T22:34:18.888Z,4.68
2023-01-09T22:36:46.693Z,4.70
2023-01-09T22:39:14.950Z,4.71
2023-01-09T22:41:41.671Z,4.66
2023-01-09T22:44:10.905Z,4.64
2023-01-09T22:46:38.275Z,4.70
2023-01-09T22:49:04.990Z,4.74
2023-01-09T22:51:33.806Z,4.74
2023-01-09T22:54:01.186Z,4.79
2023-01-09T22:56:28.047Z,4.77
2023-01-09T22:58:58.447Z,4.79
2023-01-09T23:01:25.348Z,4.78
2023-01-09T23:04:01.176Z,4.84
2023-01-09T23:06:29.393Z,4.87
2023-01-09T23:08:56.018Z,4.89
2023-01-09T23:11:45.579Z,4.92
2023-01-09T23:14:15.324Z,4.90
2023-01-09T23:16:46.839Z,4.90
2023-01-09T23:19:16.464Z,4.94
2023-01-09T23:21:44.682Z,4.96
2023-01-09T23:24:15.009Z,4.97
2023-01-09T23:26:43.588Z,5.02
2023-01-09T23:29:11.225Z,5.14
2023-01-09T23:31:37.935Z,5.20
2023-01-09T23:34:11.033Z,5.24
2023-01-09T23:36:37.726Z,5.22
2023-01-09T23:39:08.920Z,5.22
2023-01-09T23:41:55.136Z,5.21
2023-01-09T23:44:21.861Z,5.24
2023-01-09T23:46:48.560Z,5.22
2023-01-09T23:49:18.835Z,5.20
2023-01-09T23:51:46.435Z,5.19
2023-01-09T23:54:14.254Z,5.26
2023-01-09T23:56:40.917Z,5.27
2023-01-09T23:59:14.303Z,5.33
